sensor_id;sensor_type;location;lat;lon;timestamp;P1;durP1;ratioP1;P2;durP2;ratioP2
46835;SDS011;32573;51.290;6.926;2023-11-18T00:01:41;10.43;;;3.90;;
46835;SDS011;32573;51.290;6.926;2023-11-18T00:04:10;8.10;;;4.05;;
46835;SDS011;32573;51.290;6.926;2023-11-18T00:06:43;9.02;;;4.32;;
46835;SDS011;32573;51.290;6.926;2023-11-18T00:09:12;10.15;;;4.55;;
46835;SDS011;32573;51.290;6.926;2023-11-18T00:11:42;10.48;;;4.15;;
46835;SDS011;32573;51.290;6.926;2023-11-18T00:14:11;11.98;;;4.00;;
46835;SDS011;32573;51.290;6.926;2023-11-18T00:16:40;9.00;;;3.80;;
46835;SDS011;32573;51.290;6.926;2023-11-18T00:19:09;8.75;;;4.18;;
46835;SDS011;32573;51.290;6.926;2023-11-18T00:21:38;7.78;;;3.58;;
46835;SDS011;32573;51.290;6.926;2023-11-18T00:24:07;9.35;;;3.90;;
46835;SDS011;32573;51.290;6.926;2023-11-18T00:26:37;12.18;;;4.22;;
46835;SDS011;32573;51.290;6.926;2023-11-18T00:29:06;7.78;;;3.83;;
46835;SDS011;32573;51.290;6.926;2023-11-18T00:31:35;10.55;;;4.00;;
46835;SDS011;32573;51.290;6.926;2023-11-18T00:34:04;10.45;;;4.20;;
46835;SDS011;32573;51.290;6.926;2023-11-18T00:36:33;11.90;;;4.53;;
46835;SDS011;32573;51.290;6.926;2023-11-18T00:39:01;13.18;;;4.80;;
46835;SDS011;32573;51.290;6.926;2023-11-18T00:41:32;9.50;;;4.07;;
46835;SDS011;32573;51.290;6.926;2023-11-18T00:44:02;11.45;;;4.40;;
46835;SDS011;32573;51.290;6.926;2023-11-18T00:46:30;9.95;;;4.35;;
46835;SDS011;32573;51.290;6.926;2023-11-18T00:49:03;9.50;;;4.07;;
46835;SDS011;32573;51.290;6.926;2023-11-18T00:51:33;12.23;;;3.92;;
46835;SDS011;32573;51.290;6.926;2023-11-18T00:54:02;10.32;;;3.90;;
46835;SDS011;32573;51.290;6.926;2023-11-18T00:56:32;8.55;;;3.65;;
46835;SDS011;32573;51.290;6.926;2023-11-18T00:59:02;9.63;;;3.97;;
46835;SDS011;32573;51.290;6.926;2023-11-18T01:01:33;10.15;;;4.22;;
46835;SDS011;32573;51.290;6.926;2023-11-18T01:04:02;9.07;;;3.80;;
46835;SDS011;32573;51.290;6.926;2023-11-18T01:06:32;9.30;;;3.80;;
46835;SDS011;32573;51.290;6.926;2023-11-18T01:09:01;11.93;;;4.68;;
46835;SDS011;32573;51.290;6.926;2023-11-18T01:11:30;8.32;;;4.13;;
46835;SDS011;32573;51.290;6.926;2023-11-18T01:13:59;8.80;;;3.60;;
46835;SDS011;32573;51.290;6.926;2023-11-18T01:16:30;9.00;;;4.40;;
46835;SDS011;32573;51.290;6.926;2023-11-18T01:18:59;9.25;;;3.63;;
46835;SDS011;32573;51.290;6.926;2023-11-18T01:21:28;8.00;;;3.50;;
46835;SDS011;32573;51.290;6.926;2023-11-18T01:23:57;9.40;;;3.42;;
46835;SDS011;32573;51.290;6.926;2023-11-18T01:26:25;8.07;;;3.17;;
46835;SDS011;32573;51.290;6.926;2023-11-18T01:28:54;8.20;;;3.78;;
46835;SDS011;32573;51.290;6.926;2023-11-18T01:31:22;10.07;;;3.90;;
46835;SDS011;32573;51.290;6.926;2023-11-18T01:33:52;10.18;;;3.97;;
46835;SDS011;32573;51.290;6.926;2023-11-18T01:36:23;7.70;;;3.40;;
46835;SDS011;32573;51.290;6.926;2023-11-18T01:38:51;9.05;;;3.67;;
46835;SDS011;32573;51.290;6.926;2023-11-18T01:41:22;8.07;;;3.65;;
46835;SDS011;32573;51.290;6.926;2023-11-18T01:43:51;8.35;;;3.92;;
46835;SDS011;32573;51.290;6.926;2023-11-18T01:46:20;8.85;;;3.70;;
46835;SDS011;32573;51.290;6.926;2023-11-18T01:48:52;6.93;;;3.33;;
46835;SDS011;32573;51.290;6.926;2023-11-18T01:51:21;9.02;;;3.95;;
46835;SDS011;32573;51.290;6.926;2023-11-18T01:53:51;10.05;;;4.07;;
46835;SDS011;32573;51.290;6.926;2023-11-18T01:56:20;9.20;;;4.05;;
46835;SDS011;32573;51.290;6.926;2023-11-18T01:58:52;6.53;;;3.45;;
46835;SDS011;32573;51.290;6.926;2023-11-18T02:01:21;8.00;;;3.67;;
46835;SDS011;32573;51.290;6.926;2023-11-18T02:03:50;7.65;;;3.20;;
46835;SDS011;32573;51.290;6.926;2023-11-18T02:06:20;7.78;;;3.70;;
46835;SDS011;32573;51.290;6.926;2023-11-18T02:08:49;9.20;;;3.95;;
46835;SDS011;32573;51.290;6.926;2023-11-18T02:11:20;7.72;;;3.50;;
46835;SDS011;32573;51.290;6.926;2023-11-18T02:13:57;6.97;;;3.67;;
46835;SDS011;32573;51.290;6.926;2023-11-18T02:16:30;7.50;;;3.17;;
46835;SDS011;32573;51.290;6.926;2023-11-18T02:19:00;8.02;;;3.72;;
46835;SDS011;32573;51.290;6.926;2023-11-18T02:21:33;7.63;;;3.33;;
46835;SDS011;32573;51.290;6.926;2023-11-18T02:24:04;7.97;;;3.47;;
46835;SDS011;32573;51.290;6.926;2023-11-18T02:26:35;9.77;;;4.25;;
46835;SDS011;32573;51.290;6.926;2023-11-18T02:29:04;7.43;;;3.45;;
46835;SDS011;32573;51.290;6.926;2023-11-18T02:31:33;8.80;;;3.78;;
46835;SDS011;32573;51.290;6.926;2023-11-18T02:34:05;8.05;;;3.47;;
46835;SDS011;32573;51.290;6.926;2023-11-18T02:36:43;7.20;;;3.40;;
46835;SDS011;32573;51.290;6.926;2023-11-18T02:39:16;9.10;;;3.65;;
46835;SDS011;32573;51.290;6.926;2023-11-18T02:41:51;8.30;;;3.58;;
46835;SDS011;32573;51.290;6.926;2023-11-18T02:44:20;7.45;;;3.00;;
46835;SDS011;32573;51.290;6.926;2023-11-18T02:46:52;8.13;;;3.35;;
46835;SDS011;32573;51.290;6.926;2023-11-18T02:49:22;9.45;;;3.58;;
46835;SDS011;32573;51.290;6.926;2023-11-18T02:51:51;8.13;;;3.40;;
46835;SDS011;32573;51.290;6.926;2023-11-18T02:54:19;6.55;;;3.33;;
46835;SDS011;32573;51.290;6.926;2023-11-18T02:56:53;9.88;;;3.83;;
46835;SDS011;32573;51.290;6.926;2023-11-18T02:59:21;7.55;;;3.25;;
46835;SDS011;32573;51.290;6.926;2023-11-18T03:01:53;7.47;;;3.78;;
46835;SDS011;32573;51.290;6.926;2023-11-18T03:04:23;6.80;;;3.15;;
46835;SDS011;32573;51.290;6.926;2023-11-18T03:06:52;7.78;;;3.35;;
46835;SDS011;32573;51.290;6.926;2023-11-18T03:09:20;7.15;;;3.42;;
46835;SDS011;32573;51.290;6.926;2023-11-18T03:11:49;7.20;;;3.22;;
46835;SDS011;32573;51.290;6.926;2023-11-18T03:14:19;8.05;;;3.50;;
46835;SDS011;32573;51.290;6.926;2023-11-18T03:16:49;7.90;;;3.47;;
46835;SDS011;32573;51.290;6.926;2023-11-18T03:19:17;7.50;;;3.17;;
46835;SDS011;32573;51.290;6.926;2023-11-18T03:21:50;8.48;;;3.33;;
46835;SDS011;32573;51.290;6.926;2023-11-18T03:24:19;8.30;;;3.20;;
46835;SDS011;32573;51.290;6.926;2023-11-18T03:26:47;6.97;;;3.55;;
46835;SDS011;32573;51.290;6.926;2023-11-18T03:29:16;5.53;;;2.78;;
46835;SDS011;32573;51.290;6.926;2023-11-18T03:31:48;6.28;;;3.15;;
46835;SDS011;32573;51.290;6.926;2023-11-18T03:34:17;6.78;;;3.53;;
46835;SDS011;32573;51.290;6.926;2023-11-18T03:36:47;8.57;;;3.50;;
46835;SDS011;32573;51.290;6.926;2023-11-18T03:39:16;6.35;;;3.10;;
46835;SDS011;32573;51.290;6.926;2023-11-18T03:41:45;6.80;;;3.10;;
46835;SDS011;32573;51.290;6.926;2023-11-18T03:44:13;6.05;;;3.00;;
46835;SDS011;32573;51.290;6.926;2023-11-18T03:46:42;7.22;;;3.28;;
46835;SDS011;32573;51.290;6.926;2023-11-18T03:49:12;6.88;;;3.03;;
46835;SDS011;32573;51.290;6.926;2023-11-18T03:51:41;6.72;;;3.03;;
46835;SDS011;32573;51.290;6.926;2023-11-18T03:54:10;7.22;;;3.15;;
46835;SDS011;32573;51.290;6.926;2023-11-18T03:56:40;8.10;;;3.10;;
46835;SDS011;32573;51.290;6.926;2023-11-18T03:59:09;7.30;;;3.20;;
46835;SDS011;32573;51.290;6.926;2023-11-18T04:01:38;7.75;;;3.08;;
46835;SDS011;32573;51.290;6.926;2023-11-18T04:04:08;6.55;;;3.22;;
46835;SDS011;32573;51.290;6.926;2023-11-18T04:06:38;7.30;;;3.17;;
46835;SDS011;32573;51.290;6.926;2023-11-18T04:09:07;6.75;;;3.00;;
46835;SDS011;32573;51.290;6.926;2023-11-18T04:11:36;7.18;;;3.10;;
46835;SDS011;32573;51.290;6.926;2023-11-18T04:14:05;7.43;;;2.85;;
46835;SDS011;32573;51.290;6.926;2023-11-18T04:16:34;6.13;;;2.90;;
46835;SDS011;32573;51.290;6.926;2023-11-18T04:19:03;8.10;;;3.40;;
46835;SDS011;32573;51.290;6.926;2023-11-18T04:21:32;6.47;;;2.95;;
46835;SDS011;32573;51.290;6.926;2023-11-18T04:24:02;6.95;;;2.92;;
46835;SDS011;32573;51.290;6.926;2023-11-18T04:26:32;6.28;;;3.05;;
46835;SDS011;32573;51.290;6.926;2023-11-18T04:29:01;6.85;;;2.95;;
46835;SDS011;32573;51.290;6.926;2023-11-18T04:31:29;8.88;;;3.42;;
46835;SDS011;32573;51.290;6.926;2023-11-18T04:33:58;6.80;;;3.08;;
46835;SDS011;32573;51.290;6.926;2023-11-18T04:36:27;7.43;;;3.50;;
46835;SDS011;32573;51.290;6.926;2023-11-18T04:38:56;7.15;;;3.08;;
46835;SDS011;32573;51.290;6.926;2023-11-18T04:41:26;6.10;;;3.00;;
46835;SDS011;32573;51.290;6.926;2023-11-18T04:43:54;7.57;;;2.95;;
46835;SDS011;32573;51.290;6.926;2023-11-18T04:46:23;7.40;;;2.95;;
46835;SDS011;32573;51.290;6.926;2023-11-18T04:48:51;6.60;;;3.15;;
46835;SDS011;32573;51.290;6.926;2023-11-18T04:51:22;7.75;;;3.38;;
46835;SDS011;32573;51.290;6.926;2023-11-18T04:53:50;8.90;;;3.22;;
46835;SDS011;32573;51.290;6.926;2023-11-18T04:56:19;7.70;;;3.42;;
46835;SDS011;32573;51.290;6.926;2023-11-18T04:58:50;8.18;;;3.17;;
46835;SDS011;32573;51.290;6.926;2023-11-18T05:01:18;7.20;;;3.20;;
46835;SDS011;32573;51.290;6.926;2023-11-18T05:03:47;6.55;;;3.00;;
46835;SDS011;32573;51.290;6.926;2023-11-18T05:06:16;7.63;;;3.28;;
46835;SDS011;32573;51.290;6.926;2023-11-18T05:08:48;7.18;;;3.30;;
46835;SDS011;32573;51.290;6.926;2023-11-18T05:11:17;7.07;;;3.30;;
46835;SDS011;32573;51.290;6.926;2023-11-18T05:13:45;6.57;;;3.08;;
46835;SDS011;32573;51.290;6.926;2023-11-18T05:16:15;7.68;;;3.03;;
46835;SDS011;32573;51.290;6.926;2023-11-18T05:18:44;6.20;;;3.17;;
46835;SDS011;32573;51.290;6.926;2023-11-18T05:21:16;7.15;;;3.13;;
46835;SDS011;32573;51.290;6.926;2023-11-18T05:23:45;7.80;;;3.45;;
46835;SDS011;32573;51.290;6.926;2023-11-18T05:26:14;7.43;;;3.20;;
46835;SDS011;32573;51.290;6.926;2023-11-18T05:28:44;6.28;;;3.28;;
46835;SDS011;32573;51.290;6.926;2023-11-18T05:31:12;8.10;;;3.47;;
46835;SDS011;32573;51.290;6.926;2023-11-18T05:33:43;7.35;;;3.17;;
46835;SDS011;32573;51.290;6.926;2023-11-18T05:36:11;8.00;;;2.85;;
46835;SDS011;32573;51.290;6.926;2023-11-18T05:38:40;9.35;;;3.40;;
46835;SDS011;32573;51.290;6.926;2023-11-18T05:41:09;7.63;;;3.40;;
46835;SDS011;32573;51.290;6.926;2023-11-18T05:43:43;8.15;;;2.92;;
46835;SDS011;32573;51.290;6.926;2023-11-18T05:46:18;7.00;;;3.38;;
46835;SDS011;32573;51.290;6.926;2023-11-18T05:48:51;7.30;;;3.10;;
46835;SDS011;32573;51.290;6.926;2023-11-18T05:51:24;7.35;;;3.00;;
46835;SDS011;32573;51.290;6.926;2023-11-18T05:53:54;10.27;;;3.60;;
46835;SDS011;32573;51.290;6.926;2023-11-18T05:56:22;8.27;;;3.38;;
46835;SDS011;32573;51.290;6.926;2023-11-18T05:58:52;7.65;;;3.30;;
46835;SDS011;32573;51.290;6.926;2023-11-18T06:01:21;7.85;;;3.53;;
46835;SDS011;32573;51.290;6.926;2023-11-18T06:03:52;6.18;;;3.00;;
46835;SDS011;32573;51.290;6.926;2023-11-18T06:06:24;6.60;;;3.15;;
46835;SDS011;32573;51.290;6.926;2023-11-18T06:08:53;7.25;;;3.20;;
46835;SDS011;32573;51.290;6.926;2023-11-18T06:11:21;7.00;;;3.30;;
46835;SDS011;32573;51.290;6.926;2023-11-18T06:13:51;7.22;;;2.92;;
46835;SDS011;32573;51.290;6.926;2023-11-18T06:16:21;7.97;;;3.20;;
46835;SDS011;32573;51.290;6.926;2023-11-18T06:18:53;6.60;;;3.13;;
46835;SDS011;32573;51.290;6.926;2023-11-18T06:21:23;6.60;;;2.85;;
46835;SDS011;32573;51.290;6.926;2023-11-18T06:23:56;7.60;;;3.33;;
46835;SDS011;32573;51.290;6.926;2023-11-18T06:26:25;6.20;;;3.05;;
46835;SDS011;32573;51.290;6.926;2023-11-18T06:28:55;6.80;;;3.17;;
46835;SDS011;32573;51.290;6.926;2023-11-18T06:31:24;8.57;;;3.53;;
46835;SDS011;32573;51.290;6.926;2023-11-18T06:33:54;7.78;;;3.20;;
46835;SDS011;32573;51.290;6.926;2023-11-18T06:36:23;6.95;;;3.08;;
46835;SDS011;32573;51.290;6.926;2023-11-18T06:38:53;6.78;;;3.00;;
46835;SDS011;32573;51.290;6.926;2023-11-18T06:41:23;7.22;;;2.92;;
46835;SDS011;32573;51.290;6.926;2023-11-18T06:43:53;7.95;;;3.22;;
46835;SDS011;32573;51.290;6.926;2023-11-18T06:46:28;6.60;;;3.08;;
46835;SDS011;32573;51.290;6.926;2023-11-18T06:49:02;7.13;;;3.28;;
46835;SDS011;32573;51.290;6.926;2023-11-18T06:51:34;8.20;;;3.35;;
46835;SDS011;32573;51.290;6.926;2023-11-18T06:54:05;8.30;;;3.10;;
46835;SDS011;32573;51.290;6.926;2023-11-18T06:56:38;8.05;;;3.72;;
46835;SDS011;32573;51.290;6.926;2023-11-18T06:59:10;7.35;;;3.25;;
46835;SDS011;32573;51.290;6.926;2023-11-18T07:01:42;8.48;;;3.20;;
46835;SDS011;32573;51.290;6.926;2023-11-18T07:04:14;7.95;;;2.95;;
46835;SDS011;32573;51.290;6.926;2023-11-18T07:06:44;7.18;;;3.10;;
46835;SDS011;32573;51.290;6.926;2023-11-18T07:09:13;6.30;;;3.20;;
46835;SDS011;32573;51.290;6.926;2023-11-18T07:11:45;7.00;;;3.03;;
46835;SDS011;32573;51.290;6.926;2023-11-18T07:14:15;7.05;;;2.90;;
46835;SDS011;32573;51.290;6.926;2023-11-18T07:16:45;6.65;;;2.70;;
46835;SDS011;32573;51.290;6.926;2023-11-18T07:19:15;6.63;;;2.92;;
46835;SDS011;32573;51.290;6.926;2023-11-18T07:21:48;6.22;;;2.67;;
46835;SDS011;32573;51.290;6.926;2023-11-18T07:24:18;6.32;;;2.92;;
46835;SDS011;32573;51.290;6.926;2023-11-18T07:26:48;9.30;;;3.40;;
46835;SDS011;32573;51.290;6.926;2023-11-18T07:29:20;5.53;;;2.90;;
46835;SDS011;32573;51.290;6.926;2023-11-18T07:31:50;7.20;;;2.80;;
46835;SDS011;32573;51.290;6.926;2023-11-18T07:34:23;6.72;;;2.78;;
46835;SDS011;32573;51.290;6.926;2023-11-18T07:36:53;5.95;;;2.60;;
46835;SDS011;32573;51.290;6.926;2023-11-18T07:39:22;8.50;;;3.05;;
46835;SDS011;32573;51.290;6.926;2023-11-18T07:42:12;6.72;;;2.97;;
46835;SDS011;32573;51.290;6.926;2023-11-18T07:44:42;6.05;;;3.17;;
46835;SDS011;32573;51.290;6.926;2023-11-18T07:47:10;5.15;;;2.60;;
46835;SDS011;32573;51.290;6.926;2023-11-18T07:49:41;5.30;;;2.45;;
46835;SDS011;32573;51.290;6.926;2023-11-18T07:52:09;6.93;;;2.80;;
46835;SDS011;32573;51.290;6.926;2023-11-18T07:54:38;7.05;;;2.95;;
46835;SDS011;32573;51.290;6.926;2023-11-18T07:57:07;6.68;;;2.70;;
46835;SDS011;32573;51.290;6.926;2023-11-18T07:59:37;7.15;;;2.78;;
46835;SDS011;32573;51.290;6.926;2023-11-18T08:02:06;6.05;;;2.88;;
46835;SDS011;32573;51.290;6.926;2023-11-18T08:04:36;5.80;;;2.40;;
46835;SDS011;32573;51.290;6.926;2023-11-18T08:07:06;6.07;;;2.80;;
46835;SDS011;32573;51.290;6.926;2023-11-18T08:09:37;8.10;;;2.90;;
46835;SDS011;32573;51.290;6.926;2023-11-18T08:12:06;6.15;;;2.60;;
46835;SDS011;32573;51.290;6.926;2023-11-18T08:14:36;5.70;;;2.70;;
46835;SDS011;32573;51.290;6.926;2023-11-18T08:17:04;5.63;;;2.67;;
46835;SDS011;32573;51.290;6.926;2023-11-18T08:19:33;6.07;;;2.60;;
46835;SDS011;32573;51.290;6.926;2023-11-18T08:22:02;5.43;;;2.35;;
46835;SDS011;32573;51.290;6.926;2023-11-18T08:24:32;7.55;;;2.83;;
46835;SDS011;32573;51.290;6.926;2023-11-18T08:27:01;5.95;;;2.65;;
46835;SDS011;32573;51.290;6.926;2023-11-18T08:29:32;5.45;;;2.50;;
46835;SDS011;32573;51.290;6.926;2023-11-18T08:32:00;5.68;;;2.40;;
46835;SDS011;32573;51.290;6.926;2023-11-18T08:34:29;5.50;;;2.47;;
46835;SDS011;32573;51.290;6.926;2023-11-18T08:37:00;4.78;;;2.28;;
46835;SDS011;32573;51.290;6.926;2023-11-18T08:39:30;5.07;;;2.20;;
46835;SDS011;32573;51.290;6.926;2023-11-18T08:42:00;4.85;;;2.30;;
46835;SDS011;32573;51.290;6.926;2023-11-18T08:44:29;4.88;;;2.17;;
46835;SDS011;32573;51.290;6.926;2023-11-18T08:46:59;5.20;;;2.42;;
46835;SDS011;32573;51.290;6.926;2023-11-18T08:49:28;5.20;;;2.22;;
46835;SDS011;32573;51.290;6.926;2023-11-18T08:52:01;4.85;;;2.60;;
46835;SDS011;32573;51.290;6.926;2023-11-18T08:54:29;5.15;;;2.35;;
46835;SDS011;32573;51.290;6.926;2023-11-18T08:57:05;5.00;;;2.13;;
46835;SDS011;32573;51.290;6.926;2023-11-18T08:59:50;6.45;;;2.53;;
46835;SDS011;32573;51.290;6.926;2023-11-18T09:02:19;5.82;;;2.45;;
46835;SDS011;32573;51.290;6.926;2023-11-18T09:04:50;6.32;;;2.65;;
46835;SDS011;32573;51.290;6.926;2023-11-18T09:07:22;5.40;;;2.20;;
46835;SDS011;32573;51.290;6.926;2023-11-18T09:09:51;4.40;;;2.28;;
46835;SDS011;32573;51.290;6.926;2023-11-18T09:12:21;5.50;;;2.28;;
46835;SDS011;32573;51.290;6.926;2023-11-18T09:14:51;5.80;;;2.40;;
46835;SDS011;32573;51.290;6.926;2023-11-18T09:17:21;4.57;;;2.20;;
46835;SDS011;32573;51.290;6.926;2023-11-18T09:19:50;4.45;;;1.90;;
46835;SDS011;32573;51.290;6.926;2023-11-18T09:22:20;4.78;;;2.38;;
46835;SDS011;32573;51.290;6.926;2023-11-18T09:24:49;4.70;;;2.10;;
46835;SDS011;32573;51.290;6.926;2023-11-18T09:27:18;5.18;;;2.35;;
46835;SDS011;32573;51.290;6.926;2023-11-18T09:29:48;5.00;;;2.10;;
46835;SDS011;32573;51.290;6.926;2023-11-18T09:32:17;4.53;;;2.25;;
46835;SDS011;32573;51.290;6.926;2023-11-18T09:34:46;5.70;;;2.03;;
46835;SDS011;32573;51.290;6.926;2023-11-18T09:37:15;5.00;;;2.10;;
46835;SDS011;32573;51.290;6.926;2023-11-18T09:39:44;4.63;;;1.90;;
46835;SDS011;32573;51.290;6.926;2023-11-18T09:42:13;5.75;;;2.55;;
46835;SDS011;32573;51.290;6.926;2023-11-18T09:44:46;4.45;;;2.00;;
46835;SDS011;32573;51.290;6.926;2023-11-18T09:47:17;5.63;;;2.25;;
46835;SDS011;32573;51.290;6.926;2023-11-18T09:49:52;5.22;;;2.00;;
46835;SDS011;32573;51.290;6.926;2023-11-18T09:52:24;4.78;;;1.85;;
46835;SDS011;32573;51.290;6.926;2023-11-18T09:54:57;4.38;;;2.05;;
46835;SDS011;32573;51.290;6.926;2023-11-18T09:57:31;5.35;;;2.25;;
46835;SDS011;32573;51.290;6.926;2023-11-18T10:00:06;4.20;;;1.77;;
46835;SDS011;32573;51.290;6.926;2023-11-18T10:02:48;6.07;;;2.30;;
46835;SDS011;32573;51.290;6.926;2023-11-18T10:05:19;4.95;;;2.35;;
46835;SDS011;32573;51.290;6.926;2023-11-18T10:07:49;5.95;;;2.05;;
46835;SDS011;32573;51.290;6.926;2023-11-18T10:10:19;5.60;;;2.22;;
46835;SDS011;32573;51.290;6.926;2023-11-18T10:12:49;5.40;;;2.00;;
46835;SDS011;32573;51.290;6.926;2023-11-18T10:15:21;4.40;;;2.20;;
46835;SDS011;32573;51.290;6.926;2023-11-18T10:17:52;4.15;;;1.80;;
46835;SDS011;32573;51.290;6.926;2023-11-18T10:23:12;4.97;;;2.15;;
46835;SDS011;32573;51.290;6.926;2023-11-18T10:25:49;5.05;;;2.05;;
46835;SDS011;32573;51.290;6.926;2023-11-18T10:28:23;4.38;;;2.00;;
46835;SDS011;32573;51.290;6.926;2023-11-18T10:30:57;4.30;;;2.10;;
46835;SDS011;32573;51.290;6.926;2023-11-18T10:33:30;5.63;;;2.08;;
46835;SDS011;32573;51.290;6.926;2023-11-18T10:35:59;4.75;;;1.95;;
46835;SDS011;32573;51.290;6.926;2023-11-18T10:38:38;6.50;;;2.50;;
46835;SDS011;32573;51.290;6.926;2023-11-18T10:41:10;5.07;;;2.42;;
46835;SDS011;32573;51.290;6.926;2023-11-18T10:43:40;4.78;;;2.20;;
46835;SDS011;32573;51.290;6.926;2023-11-18T10:46:11;6.03;;;2.10;;
46835;SDS011;32573;51.290;6.926;2023-11-18T10:48:41;4.93;;;1.90;;
46835;SDS011;32573;51.290;6.926;2023-11-18T10:51:11;6.20;;;2.53;;
46835;SDS011;32573;51.290;6.926;2023-11-18T10:53:40;5.18;;;2.38;;
46835;SDS011;32573;51.290;6.926;2023-11-18T10:56:22;4.78;;;2.00;;
46835;SDS011;32573;51.290;6.926;2023-11-18T10:58:55;5.57;;;2.10;;
46835;SDS011;32573;51.290;6.926;2023-11-18T11:01:29;4.20;;;1.80;;
46835;SDS011;32573;51.290;6.926;2023-11-18T11:04:00;4.57;;;2.00;;
46835;SDS011;32573;51.290;6.926;2023-11-18T11:06:32;5.10;;;2.30;;
46835;SDS011;32573;51.290;6.926;2023-11-18T11:09:02;4.10;;;1.77;;
46835;SDS011;32573;51.290;6.926;2023-11-18T11:11:39;4.07;;;1.80;;
46835;SDS011;32573;51.290;6.926;2023-11-18T11:14:10;5.70;;;1.90;;
46835;SDS011;32573;51.290;6.926;2023-11-18T11:16:45;4.78;;;1.63;;
46835;SDS011;32573;51.290;6.926;2023-11-18T11:19:20;4.57;;;2.10;;
46835;SDS011;32573;51.290;6.926;2023-11-18T11:21:55;4.03;;;1.90;;
46835;SDS011;32573;51.290;6.926;2023-11-18T11:24:39;4.15;;;1.60;;
46835;SDS011;32573;51.290;6.926;2023-11-18T11:27:22;4.50;;;1.73;;
46835;SDS011;32573;51.290;6.926;2023-11-18T11:30:06;4.78;;;1.77;;
46835;SDS011;32573;51.290;6.926;2023-11-18T11:32:45;5.45;;;2.10;;
46835;SDS011;32573;51.290;6.926;2023-11-18T11:35:19;4.57;;;1.90;;
46835;SDS011;32573;51.290;6.926;2023-11-18T11:37:52;3.67;;;1.65;;
46835;SDS011;32573;51.290;6.926;2023-11-18T11:40:24;4.25;;;1.73;;
46835;SDS011;32573;51.290;6.926;2023-11-18T11:42:56;4.85;;;1.88;;
46835;SDS011;32573;51.290;6.926;2023-11-18T11:45:28;4.93;;;1.90;;
46835;SDS011;32573;51.290;6.926;2023-11-18T11:47:59;4.63;;;1.70;;
46835;SDS011;32573;51.290;6.926;2023-11-18T11:50:54;5.75;;;1.98;;
46835;SDS011;32573;51.290;6.926;2023-11-18T11:56:03;4.55;;;1.80;;
46835;SDS011;32573;51.290;6.926;2023-11-18T11:58:41;3.70;;;1.67;;
46835;SDS011;32573;51.290;6.926;2023-11-18T12:01:15;3.28;;;1.63;;
46835;SDS011;32573;51.290;6.926;2023-11-18T12:03:53;4.05;;;1.90;;
46835;SDS011;32573;51.290;6.926;2023-11-18T12:06:26;4.15;;;1.77;;
46835;SDS011;32573;51.290;6.926;2023-11-18T12:08:56;4.43;;;1.73;;
46835;SDS011;32573;51.290;6.926;2023-11-18T12:11:24;3.83;;;1.75;;
46835;SDS011;32573;51.290;6.926;2023-11-18T12:14:02;3.08;;;1.40;;
46835;SDS011;32573;51.290;6.926;2023-11-18T12:19:37;4.00;;;1.60;;
46835;SDS011;32573;51.290;6.926;2023-11-18T12:22:16;3.92;;;1.60;;
46835;SDS011;32573;51.290;6.926;2023-11-18T12:28:08;5.35;;;1.80;;
46835;SDS011;32573;51.290;6.926;2023-11-18T12:30:38;3.70;;;1.60;;
46835;SDS011;32573;51.290;6.926;2023-11-18T12:33:17;3.88;;;1.60;;
46835;SDS011;32573;51.290;6.926;2023-11-18T12:44:57;3.80;;;1.60;;
46835;SDS011;32573;51.290;6.926;2023-11-18T12:47:47;3.17;;;1.50;;
46835;SDS011;32573;51.290;6.926;2023-11-18T12:50:20;4.07;;;1.73;;
46835;SDS011;32573;51.290;6.926;2023-11-18T12:52:52;4.05;;;1.88;;
46835;SDS011;32573;51.290;6.926;2023-11-18T12:55:21;3.28;;;1.58;;
46835;SDS011;32573;51.290;6.926;2023-11-18T12:57:51;3.95;;;1.60;;
46835;SDS011;32573;51.290;6.926;2023-11-18T13:00:21;4.07;;;1.50;;
46835;SDS011;32573;51.290;6.926;2023-11-18T13:02:55;3.38;;;1.33;;
46835;SDS011;32573;51.290;6.926;2023-11-18T13:05:25;5.45;;;1.90;;
46835;SDS011;32573;51.290;6.926;2023-11-18T13:07:59;4.30;;;1.80;;
46835;SDS011;32573;51.290;6.926;2023-11-18T13:10:28;4.18;;;1.90;;
46835;SDS011;32573;51.290;6.926;2023-11-18T13:12:59;3.97;;;1.45;;
46835;SDS011;32573;51.290;6.926;2023-11-18T13:15:28;4.70;;;1.88;;
46835;SDS011;32573;51.290;6.926;2023-11-18T13:17:58;3.25;;;1.40;;
46835;SDS011;32573;51.290;6.926;2023-11-18T13:20:28;4.07;;;1.77;;
46835;SDS011;32573;51.290;6.926;2023-11-18T13:22:58;3.92;;;1.60;;
46835;SDS011;32573;51.290;6.926;2023-11-18T13:25:28;3.00;;;1.30;;
46835;SDS011;32573;51.290;6.926;2023-11-18T13:27:57;3.03;;;1.42;;
46835;SDS011;32573;51.290;6.926;2023-11-18T13:30:27;3.85;;;1.50;;
46835;SDS011;32573;51.290;6.926;2023-11-18T13:32:56;3.67;;;1.50;;
46835;SDS011;32573;51.290;6.926;2023-11-18T13:35:25;3.65;;;1.48;;
46835;SDS011;32573;51.290;6.926;2023-11-18T13:37:55;2.85;;;1.40;;
46835;SDS011;32573;51.290;6.926;2023-11-18T13:40:25;3.53;;;1.42;;
46835;SDS011;32573;51.290;6.926;2023-11-18T13:43:03;2.97;;;1.50;;
46835;SDS011;32573;51.290;6.926;2023-11-18T13:45:37;3.60;;;1.40;;
46835;SDS011;32573;51.290;6.926;2023-11-18T13:48:06;3.67;;;1.45;;
46835;SDS011;32573;51.290;6.926;2023-11-18T13:50:36;3.35;;;1.40;;
46835;SDS011;32573;51.290;6.926;2023-11-18T13:53:05;3.45;;;1.30;;
46835;SDS011;32573;51.290;6.926;2023-11-18T13:55:35;4.88;;;1.80;;
46835;SDS011;32573;51.290;6.926;2023-11-18T13:58:05;2.70;;;1.20;;
46835;SDS011;32573;51.290;6.926;2023-11-18T14:00:39;4.93;;;1.83;;
46835;SDS011;32573;51.290;6.926;2023-11-18T14:03:09;3.28;;;1.25;;
46835;SDS011;32573;51.290;6.926;2023-11-18T14:05:39;4.30;;;1.60;;
46835;SDS011;32573;51.290;6.926;2023-11-18T14:08:16;3.88;;;1.35;;
46835;SDS011;32573;51.290;6.926;2023-11-18T14:10:47;3.47;;;1.45;;
46835;SDS011;32573;51.290;6.926;2023-11-18T14:13:29;3.03;;;1.40;;
46835;SDS011;32573;51.290;6.926;2023-11-18T14:15:59;3.33;;;1.20;;
46835;SDS011;32573;51.290;6.926;2023-11-18T14:18:29;3.42;;;1.23;;
46835;SDS011;32573;51.290;6.926;2023-11-18T14:20:57;3.00;;;1.35;;
46835;SDS011;32573;51.290;6.926;2023-11-18T14:23:28;3.65;;;1.40;;
46835;SDS011;32573;51.290;6.926;2023-11-18T14:25:56;4.03;;;1.60;;
46835;SDS011;32573;51.290;6.926;2023-11-18T14:28:25;3.58;;;1.40;;
46835;SDS011;32573;51.290;6.926;2023-11-18T14:30:54;3.85;;;1.35;;
46835;SDS011;32573;51.290;6.926;2023-11-18T14:33:24;3.90;;;1.35;;
46835;SDS011;32573;51.290;6.926;2023-11-18T14:35:53;3.55;;;1.50;;
46835;SDS011;32573;51.290;6.926;2023-11-18T14:38:23;2.97;;;1.17;;
46835;SDS011;32573;51.290;6.926;2023-11-18T14:40:51;3.42;;;1.48;;
46835;SDS011;32573;51.290;6.926;2023-11-18T14:43:20;4.00;;;1.40;;
46835;SDS011;32573;51.290;6.926;2023-11-18T14:45:49;3.70;;;1.48;;
46835;SDS011;32573;51.290;6.926;2023-11-18T14:48:17;3.58;;;1.48;;
46835;SDS011;32573;51.290;6.926;2023-11-18T14:50:47;4.57;;;1.45;;
46835;SDS011;32573;51.290;6.926;2023-11-18T14:53:16;3.58;;;1.60;;
46835;SDS011;32573;51.290;6.926;2023-11-18T14:55:46;3.03;;;1.35;;
46835;SDS011;32573;51.290;6.926;2023-11-18T14:58:14;3.28;;;1.40;;
46835;SDS011;32573;51.290;6.926;2023-11-18T15:00:44;3.75;;;1.48;;
46835;SDS011;32573;51.290;6.926;2023-11-18T15:03:14;3.13;;;1.33;;
46835;SDS011;32573;51.290;6.926;2023-11-18T15:05:43;3.15;;;1.30;;
46835;SDS011;32573;51.290;6.926;2023-11-18T15:08:13;3.30;;;1.60;;
46835;SDS011;32573;51.290;6.926;2023-11-18T15:10:43;4.60;;;1.50;;
46835;SDS011;32573;51.290;6.926;2023-11-18T15:13:12;3.00;;;1.48;;
46835;SDS011;32573;51.290;6.926;2023-11-18T15:15:45;6.35;;;2.05;;
46835;SDS011;32573;51.290;6.926;2023-11-18T15:18:15;3.85;;;1.63;;
46835;SDS011;32573;51.290;6.926;2023-11-18T15:20:45;4.15;;;1.95;;
46835;SDS011;32573;51.290;6.926;2023-11-18T15:23:16;4.82;;;1.90;;
46835;SDS011;32573;51.290;6.926;2023-11-18T15:25:45;4.10;;;1.77;;
46835;SDS011;32573;51.290;6.926;2023-11-18T15:28:14;4.05;;;1.65;;
46835;SDS011;32573;51.290;6.926;2023-11-18T15:30:44;4.18;;;1.60;;